Time;durP1;ratioP1;P1;durP2;ratioP2;P2;SDS_P1;SDS_P2;PMS_P1;PMS_P2;Temp;Humidity;BMP_temperature;BMP_pressure;BME280_temperature;BME280_humidity;BME280_pressure;Samples;Min_cycle;Max_cycle;Signal;HPM_P1;HPM_P2
2023/07/02 00:01:03;;;;;;;6.55;0.90;;;;;;;;;;5018691;28;20550;-68
2023/07/02 00:03:29;;;;;;;1.05;0.82;;;;;;;;;;5050255;28;20427;-70
2023/07/02 00:05:56;;;;;;;0.93;0.93;;;;;;;;;;5055876;28;20040;-68
2023/07/02 00:08:22;;;;;;;1.35;0.90;;;;;;;;;;5054747;28;20036;-67
2023/07/02 00:10:47;;;;;;;4.13;1.23;;;;;;;;;;5048205;28;20385;-69
2023/07/02 00:13:14;;;;;;;1.85;1.00;;;;;;;;;;5039027;28;20120;-68
2023/07/02 00:15:39;;;;;;;0.90;0.90;;;;;;;;;;5039447;28;20049;-68
2023/07/02 00:18:05;;;;;;;2.33;1.20;;;;;;;;;;5056916;28;20036;-69
2023/07/02 00:20:34;;;;;;;1.55;1.30;;;;;;;;;;5054105;28;20044;-68
2023/07/02 00:23:00;;;;;;;0.88;0.88;;;;;;;;;;5056989;28;20017;-69
2023/07/02 00:25:26;;;;;;;1.35;1.20;;;;;;;;;;5048830;28;20037;-69
2023/07/02 00:27:52;;;;;;;3.40;1.15;;;;;;;;;;5057620;28;20085;-67
2023/07/02 00:30:17;;;;;;;1.30;1.20;;;;;;;;;;5053977;28;20057;-68
2023/07/02 00:32:42;;;;;;;1.38;1.27;;;;;;;;;;5034226;28;20247;-68
2023/07/02 00:35:08;;;;;;;1.50;1.13;;;;;;;;;;5028269;28;20067;-68
2023/07/02 00:37:33;;;;;;;2.63;1.40;;;;;;;;;;5036777;28;20461;-68
2023/07/02 00:39:59;;;;;;;3.85;1.80;;;;;;;;;;5037769;28;20024;-67
2023/07/02 00:42:29;;;;;;;1.77;1.67;;;;;;;;;;5035050;28;20044;-70
2023/07/02 00:44:56;;;;;;;5.15;1.73;;;;;;;;;;5036859;28;20029;-69
2023/07/02 00:47:23;;;;;;;1.80;1.70;;;;;;;;;;5049528;28;20061;-69
2023/07/02 00:49:50;;;;;;;1.67;1.58;;;;;;;;;;5020929;28;20029;-69
2023/07/02 00:52:15;;;;;;;1.77;1.63;;;;;;;;;;5038254;28;20052;-68
2023/07/02 00:54:40;;;;;;;2.15;1.90;;;;;;;;;;5052234;28;20398;-69
2023/07/02 00:57:07;;;;;;;1.95;1.83;;;;;;;;;;5033683;28;20094;-67
2023/07/02 00:59:37;;;;;;;1.73;1.63;;;;;;;;;;5054262;28;20025;-67
2023/07/02 01:02:06;;;;;;;1.60;1.50;;;;;;;;;;5055560;28;20032;-69
2023/07/02 01:04:32;;;;;;;1.77;1.67;;;;;;;;;;5031053;28;20033;-68
2023/07/02 01:06:57;;;;;;;1.75;1.65;;;;;;;;;;5041619;28;20058;-69
2023/07/02 01:09:25;;;;;;;1.55;1.45;;;;;;;;;;5039287;28;20041;-69
2023/07/02 01:11:54;;;;;;;1.50;1.42;;;;;;;;;;5054150;28;20055;-68
2023/07/02 01:14:26;;;;;;;1.40;1.30;;;;;;;;;;5036170;28;20104;-68
2023/07/02 01:16:53;;;;;;;1.35;1.27;;;;;;;;;;5047060;28;20061;-69
2023/07/02 01:19:34;;;;;;;1.63;1.35;;;;;;;;;;5051277;28;20107;-68
2023/07/02 01:22:00;;;;;;;2.97;1.60;;;;;;;;;;5050764;28;20059;-70
2023/07/02 01:24:26;;;;;;;1.63;1.52;;;;;;;;;;5049879;28;20074;-69
2023/07/02 01:26:52;;;;;;;2.17;1.98;;;;;;;;;;5050237;28;20573;-69
2023/07/02 01:29:18;;;;;;;1.98;1.88;;;;;;;;;;5051256;28;20131;-69
2023/07/02 01:31:44;;;;;;;3.67;2.28;;;;;;;;;;5036792;28;20044;-68
2023/07/02 01:34:10;;;;;;;4.05;2.20;;;;;;;;;;5024430;28;20051;-69
2023/07/02 01:36:36;;;;;;;3.30;2.17;;;;;;;;;;5035510;28;20046;-69
2023/07/02 01:39:02;;;;;;;5.25;2.28;;;;;;;;;;5047380;28;20518;-68
2023/07/02 01:41:28;;;;;;;2.80;2.47;;;;;;;;;;5054408;28;20037;-68
2023/07/02 01:43:53;;;;;;;3.22;2.60;;;;;;;;;;5041181;28;20218;-69
2023/07/02 01:46:19;;;;;;;2.97;2.65;;;;;;;;;;5026755;28;20048;-69
2023/07/02 01:48:44;;;;;;;3.85;2.90;;;;;;;;;;5031526;28;20021;-70
2023/07/02 01:51:09;;;;;;;3.80;3.50;;;;;;;;;;5034943;28;20049;-68
2023/07/02 01:53:35;;;;;;;6.43;3.60;;;;;;;;;;5015813;28;20082;-69
2023/07/02 01:56:00;;;;;;;10.20;4.22;;;;;;;;;;5045316;28;20033;-68
2023/07/02 01:58:26;;;;;;;4.03;3.53;;;;;;;;;;5057315;28;20033;-69
2023/07/02 02:00:51;;;;;;;3.78;3.45;;;;;;;;;;5052453;28;20568;-69
2023/07/02 02:03:17;;;;;;;4.10;3.65;;;;;;;;;;5047497;28;20489;-69
2023/07/02 02:05:42;;;;;;;4.60;4.15;;;;;;;;;;5057165;28;20135;-69
2023/07/02 02:08:08;;;;;;;3.88;3.53;;;;;;;;;;5059635;28;20032;-68
2023/07/02 02:10:33;;;;;;;4.40;4.00;;;;;;;;;;5022774;28;20037;-69
2023/07/02 02:12:58;;;;;;;4.07;3.72;;;;;;;;;;5011874;28;20026;-68
2023/07/02 02:15:24;;;;;;;3.92;3.53;;;;;;;;;;5050259;28;20421;-68
2023/07/02 02:17:49;;;;;;;4.03;3.72;;;;;;;;;;5049968;28;20060;-69
2023/07/02 02:20:15;;;;;;;3.80;3.50;;;;;;;;;;5046411;28;20721;-68
2023/07/02 02:22:40;;;;;;;6.03;4.25;;;;;;;;;;5055037;28;20489;-67
2023/07/02 02:25:06;;;;;;;4.38;3.97;;;;;;;;;;5035525;28;20029;-69
2023/07/02 02:27:32;;;;;;;5.50;3.80;;;;;;;;;;5039571;28;20028;-67
2023/07/02 02:29:57;;;;;;;4.85;4.07;;;;;;;;;;5035446;28;20491;-68
2023/07/02 02:32:23;;;;;;;4.07;3.78;;;;;;;;;;5048004;28;20485;-68
2023/07/02 02:34:49;;;;;;;4.53;4.22;;;;;;;;;;5058432;28;20025;-68
2023/07/02 02:37:14;;;;;;;4.80;4.40;;;;;;;;;;5039607;28;20062;-69
2023/07/02 02:39:40;;;;;;;4.97;4.57;;;;;;;;;;5044710;28;20017;-69
2023/07/02 02:42:05;;;;;;;4.78;4.18;;;;;;;;;;5051479;28;20048;-69
2023/07/02 02:44:32;;;;;;;4.80;4.10;;;;;;;;;;5035846;28;20025;-69
2023/07/02 02:46:57;;;;;;;8.77;4.93;;;;;;;;;;5053280;28;20036;-69
2023/07/02 02:49:23;;;;;;;4.50;4.10;;;;;;;;;;5043813;28;20029;-69
2023/07/02 02:51:48;;;;;;;4.72;4.18;;;;;;;;;;5036717;28;20047;-68
2023/07/02 02:54:14;;;;;;;5.30;4.82;;;;;;;;;;5034113;28;20106;-69
2023/07/02 02:56:39;;;;;;;5.90;5.30;;;;;;;;;;5035437;28;20091;-69
2023/07/02 02:59:05;;;;;;;7.43;4.90;;;;;;;;;;5052839;28;20025;-69
2023/07/02 03:01:31;;;;;;;6.45;5.40;;;;;;;;;;5039690;28;20124;-69
2023/07/02 03:03:58;;;;;;;7.43;5.25;;;;;;;;;;5042876;28;20039;-69
2023/07/02 03:06:24;;;;;;;6.40;5.80;;;;;;;;;;5057324;28;20117;-68
2023/07/02 03:08:50;;;;;;;7.13;5.97;;;;;;;;;;5056515;28;20686;-68
2023/07/02 03:11:15;;;;;;;8.35;6.38;;;;;;;;;;5051678;28;20037;-68
2023/07/02 03:13:40;;;;;;;6.70;6.10;;;;;;;;;;5034348;28;20593;-69
2023/07/02 03:16:06;;;;;;;14.55;6.90;;;;;;;;;;5039263;28;20119;-68
2023/07/02 03:18:31;;;;;;;7.22;6.53;;;;;;;;;;5040353;28;20051;-69
2023/07/02 03:20:58;;;;;;;6.93;6.22;;;;;;;;;;5056758;28;20098;-69
2023/07/02 03:23:23;;;;;;;8.82;7.22;;;;;;;;;;5045109;28;20052;-69
2023/07/02 03:25:49;;;;;;;8.60;7.05;;;;;;;;;;5050312;28;20040;-69
2023/07/02 03:28:14;;;;;;;8.93;7.25;;;;;;;;;;5042182;28;20029;-68
2023/07/02 03:30:40;;;;;;;9.25;8.15;;;;;;;;;;5055146;28;20045;-70
2023/07/02 03:33:05;;;;;;;11.40;8.02;;;;;;;;;;5036428;28;20447;-69
2023/07/02 03:35:31;;;;;;;11.25;8.63;;;;;;;;;;5048647;28;20700;-69
2023/07/02 03:37:57;;;;;;;10.48;8.60;;;;;;;;;;5023172;28;20159;-69
2023/07/02 03:40:23;;;;;;;9.27;8.13;;;;;;;;;;5037035;28;20041;-69
2023/07/02 03:42:48;;;;;;;10.35;9.25;;;;;;;;;;5038618;28;20025;-68
2023/07/02 03:45:14;;;;;;;12.45;8.93;;;;;;;;;;5037458;28;20560;-70
2023/07/02 03:47:39;;;;;;;14.32;9.30;;;;;;;;;;5036298;28;20490;-70
2023/07/02 03:50:05;;;;;;;12.63;9.73;;;;;;;;;;5037730;28;20047;-70
2023/07/02 03:52:30;;;;;;;13.70;9.60;;;;;;;;;;5021221;28;20065;-70
2023/07/02 03:54:56;;;;;;;14.05;9.45;;;;;;;;;;5034489;28;20029;-68
2023/07/02 03:57:21;;;;;;;14.77;9.98;;;;;;;;;;5027617;28;20029;-69
2023/07/02 03:59:46;;;;;;;11.68;10.07;;;;;;;;;;5048697;28;20033;-69
2023/07/02 04:02:12;;;;;;;11.68;9.73;;;;;;;;;;5040331;28;20037;-69
2023/07/02 04:04:37;;;;;;;15.65;11.05;;;;;;;;;;5024731;28;20383;-69
2023/07/02 04:07:03;;;;;;;14.27;10.65;;;;;;;;;;5047202;28;20379;-69
2023/07/02 04:09:28;;;;;;;14.65;10.98;;;;;;;;;;5053625;28;20028;-69
2023/07/02 04:11:54;;;;;;;15.93;11.13;;;;;;;;;;5036935;28;20068;-69
2023/07/02 04:14:19;;;;;;;15.50;10.90;;;;;;;;;;5028619;28;20116;-69
2023/07/02 04:16:45;;;;;;;16.63;10.68;;;;;;;;;;5054205;28;20048;-70
2023/07/02 04:19:10;;;;;;;15.98;10.98;;;;;;;;;;5022114;28;20025;-70
2023/07/02 04:21:36;;;;;;;19.77;11.30;;;;;;;;;;5035132;28;20057;-69
2023/07/02 04:24:01;;;;;;;16.13;11.57;;;;;;;;;;5047548;28;20112;-69
2023/07/02 04:26:27;;;;;;;14.00;10.68;;;;;;;;;;5045777;28;20057;-69
2023/07/02 04:28:54;;;;;;;12.52;10.77;;;;;;;;;;5056648;28;20025;-68
2023/07/02 04:31:20;;;;;;;17.77;11.32;;;;;;;;;;5036295;28;20041;-69
2023/07/02 04:33:45;;;;;;;16.05;11.32;;;;;;;;;;5028298;28;20021;-68
2023/07/02 04:36:12;;;;;;;16.65;11.40;;;;;;;;;;5036397;28;20041;-69
2023/07/02 04:38:39;;;;;;;14.90;11.20;;;;;;;;;;5055038;28;20032;-69
2023/07/02 04:41:05;;;;;;;13.68;10.40;;;;;;;;;;5051205;28;20199;-70
2023/07/02 04:43:33;;;;;;;14.27;10.38;;;;;;;;;;5056099;28;20061;-69
2023/07/02 04:45:59;;;;;;;13.88;10.95;;;;;;;;;;5018995;28;20041;-68
2023/07/02 04:48:25;;;;;;;15.60;11.52;;;;;;;;;;5053949;28;20065;-70
2023/07/02 04:50:50;;;;;;;17.48;10.88;;;;;;;;;;5034041;28;20057;-69
2023/07/02 04:53:16;;;;;;;15.57;10.57;;;;;;;;;;5022659;28;20067;-69
2023/07/02 04:55:41;;;;;;;14.85;10.75;;;;;;;;;;5047228;28;20048;-68
2023/07/02 04:58:07;;;;;;;14.65;11.10;;;;;;;;;;5020506;28;20025;-70
2023/07/02 05:00:33;;;;;;;12.20;10.43;;;;;;;;;;5043150;28;20463;-70
2023/07/02 05:02:58;;;;;;;15.60;11.60;;;;;;;;;;5051941;28;20025;-69
2023/07/02 05:05:23;;;;;;;15.10;10.80;;;;;;;;;;5053084;28;20502;-69
2023/07/02 05:07:49;;;;;;;17.02;11.95;;;;;;;;;;5038198;28;20527;-69
2023/07/02 05:10:14;;;;;;;19.52;11.77;;;;;;;;;;5054203;28;20059;-69
2023/07/02 05:12:40;;;;;;;15.57;10.70;;;;;;;;;;5050693;28;20111;-69
2023/07/02 05:15:06;;;;;;;15.45;11.65;;;;;;;;;;5051151;28;20449;-69
2023/07/02 05:17:34;;;;;;;16.95;11.65;;;;;;;;;;5052733;28;20039;-69
2023/07/02 05:20:04;;;;;;;14.02;11.07;;;;;;;;;;5034895;28;20648;-71
2023/07/02 05:22:30;;;;;;;16.95;11.90;;;;;;;;;;5040590;28;20036;-70
2023/07/02 05:24:55;;;;;;;14.85;12.18;;;;;;;;;;5040750;28;20505;-64
2023/07/02 05:27:20;;;;;;;15.32;11.23;;;;;;;;;;5028139;28;20026;-71
2023/07/02 05:29:46;;;;;;;20.52;12.75;;;;;;;;;;5057390;28;20060;-70
2023/07/02 05:32:11;;;;;;;16.15;12.80;;;;;;;;;;5059183;28;20052;-71
2023/07/02 05:34:37;;;;;;;15.50;11.60;;;;;;;;;;5036811;28;20033;-70
2023/07/02 05:37:02;;;;;;;18.13;12.43;;;;;;;;;;5047967;28;20037;-70
2023/07/02 05:39:28;;;;;;;17.98;12.70;;;;;;;;;;5052866;28;20021;-70
2023/07/02 05:41:53;;;;;;;16.42;12.60;;;;;;;;;;5036619;28;20037;-71
2023/07/02 05:44:19;;;;;;;19.83;13.75;;;;;;;;;;5043841;28;20072;-70
2023/07/02 05:46:44;;;;;;;15.60;12.80;;;;;;;;;;5023800;28;20052;-70
2023/07/02 05:49:10;;;;;;;16.73;13.13;;;;;;;;;;5046446;28;20087;-70
2023/07/02 05:51:35;;;;;;;20.02;14.02;;;;;;;;;;5050207;28;20041;-71
2023/07/02 05:54:01;;;;;;;18.67;14.13;;;;;;;;;;5022313;28;20036;-70
2023/07/02 05:56:26;;;;;;;17.35;13.07;;;;;;;;;;5050769;28;20108;-70
2023/07/02 05:58:51;;;;;;;20.25;13.32;;;;;;;;;;5053557;28;20029;-71
2023/07/02 06:01:17;;;;;;;17.20;12.35;;;;;;;;;;5042963;28;20037;-71
2023/07/02 06:03:45;;;;;;;18.85;13.63;;;;;;;;;;5036313;28;20593;-72
2023/07/02 06:06:11;;;;;;;20.10;13.60;;;;;;;;;;5045411;28;22882;-69
2023/07/02 06:08:36;;;;;;;17.45;13.52;;;;;;;;;;5042962;28;20047;-71
2023/07/02 06:11:02;;;;;;;15.10;12.80;;;;;;;;;;5052887;28;20116;-70
2023/07/02 06:13:27;;;;;;;17.73;12.93;;;;;;;;;;5053546;28;20036;-71
2023/07/02 06:15:53;;;;;;;17.42;13.07;;;;;;;;;;5053581;28;20124;-69
2023/07/02 06:18:18;;;;;;;16.92;12.73;;;;;;;;;;5054808;28;20667;-71
2023/07/02 06:20:44;;;;;;;17.08;12.35;;;;;;;;;;5048118;28;20098;-71
2023/07/02 06:23:09;;;;;;;17.63;12.95;;;;;;;;;;5019474;28;20029;-70
2023/07/02 06:25:35;;;;;;;17.60;12.75;;;;;;;;;;5049896;28;20040;-70
2023/07/02 06:28:00;;;;;;;16.52;12.80;;;;;;;;;;5037934;28;20037;-70
2023/07/02 06:30:26;;;;;;;18.48;13.50;;;;;;;;;;5062787;28;20119;-71
2023/07/02 06:32:52;;;;;;;19.63;13.23;;;;;;;;;;5053226;28;20043;-71
2023/07/02 06:35:17;;;;;;;17.02;12.50;;;;;;;;;;5017909;28;20069;-71
2023/07/02 06:37:43;;;;;;;19.67;12.93;;;;;;;;;;5037027;28;20090;-70
2023/07/02 06:40:10;;;;;;;19.15;12.77;;;;;;;;;;5037650;28;20036;-71
2023/07/02 06:42:38;;;;;;;17.58;12.65;;;;;;;;;;5046215;28;20509;-71
2023/07/02 06:45:04;;;;;;;20.55;12.25;;;;;;;;;;5039399;28;20025;-69
2023/07/02 06:47:30;;;;;;;20.27;12.30;;;;;;;;;;5042127;28;20368;-69
2023/07/02 06:49:55;;;;;;;17.30;12.07;;;;;;;;;;5027020;28;20070;-68
2023/07/02 06:52:20;;;;;;;18.17;13.15;;;;;;;;;;5043847;28;20033;-70
2023/07/02 06:54:46;;;;;;;20.98;11.68;;;;;;;;;;5022244;28;20036;-69
2023/07/02 06:57:13;;;;;;;15.65;11.45;;;;;;;;;;5026742;28;20583;-70
2023/07/02 06:59:38;;;;;;;19.67;11.77;;;;;;;;;;5057800;28;20467;-69
2023/07/02 07:02:04;;;;;;;18.02;11.75;;;;;;;;;;5057940;28;20064;-69
2023/07/02 07:04:29;;;;;;;16.17;10.65;;;;;;;;;;5039212;28;20704;-68
2023/07/02 07:06:57;;;;;;;17.20;11.32;;;;;;;;;;5050658;28;20080;-68
2023/07/02 07:09:23;;;;;;;16.55;11.00;;;;;;;;;;5030232;28;20032;-70
2023/07/02 07:11:48;;;;;;;17.92;11.70;;;;;;;;;;5034325;28;20033;-68
2023/07/02 07:14:14;;;;;;;14.68;11.60;;;;;;;;;;5040666;28;20463;-71
2023/07/02 07:16:39;;;;;;;14.35;10.60;;;;;;;;;;5048447;28;20072;-70
2023/07/02 07:19:06;;;;;;;18.45;11.82;;;;;;;;;;5038438;28;20025;-68
2023/07/02 07:21:31;;;;;;;14.32;11.55;;;;;;;;;;5055182;28;20147;-70
2023/07/02 07:23:57;;;;;;;15.38;11.48;;;;;;;;;;5035450;28;20148;-69
2023/07/02 07:26:22;;;;;;;18.23;12.30;;;;;;;;;;5052112;28;20140;-69
2023/07/02 07:28:47;;;;;;;13.93;11.63;;;;;;;;;;5051472;28;20025;-68
2023/07/02 07:31:13;;;;;;;16.65;11.77;;;;;;;;;;5038447;28;20120;-70
2023/07/02 07:33:38;;;;;;;15.45;11.52;;;;;;;;;;5047979;28;20025;-70
2023/07/02 07:36:04;;;;;;;15.35;10.63;;;;;;;;;;5039788;28;20105;-69
2023/07/02 07:38:29;;;;;;;14.43;9.80;;;;;;;;;;5066462;28;20025;-70
2023/07/02 07:40:55;;;;;;;14.38;10.13;;;;;;;;;;5025096;28;20037;-70
2023/07/02 07:43:20;;;;;;;14.68;11.45;;;;;;;;;;5033935;28;20451;-68
2023/07/02 07:45:46;;;;;;;14.43;11.02;;;;;;;;;;5037637;28;20033;-69
2023/07/02 07:48:11;;;;;;;13.23;10.10;;;;;;;;;;5055038;28;20047;-71
2023/07/02 07:50:36;;;;;;;12.73;8.98;;;;;;;;;;5048539;28;20049;-69
2023/07/02 07:53:02;;;;;;;12.13;10.45;;;;;;;;;;5017811;28;20032;-67
2023/07/02 07:55:28;;;;;;;13.57;10.02;;;;;;;;;;5052668;28;20553;-72
2023/07/02 07:57:53;;;;;;;14.40;10.63;;;;;;;;;;5018456;28;20555;-72
2023/07/02 08:00:19;;;;;;;15.45;10.07;;;;;;;;;;5044009;28;20045;-70
2023/07/02 08:02:47;;;;;;;14.35;10.48;;;;;;;;;;5018598;28;21004;-70
2023/07/02 08:05:13;;;;;;;17.00;10.05;;;;;;;;;;5046280;28;20414;-69
2023/07/02 08:07:40;;;;;;;12.35;9.57;;;;;;;;;;5031830;28;20029;-71
2023/07/02 08:10:07;;;;;;;10.38;9.20;;;;;;;;;;5048461;28;20032;-71
2023/07/02 08:12:33;;;;;;;13.93;10.52;;;;;;;;;;5046906;28;20025;-70
2023/07/02 08:14:59;;;;;;;11.90;9.55;;;;;;;;;;5051741;28;20033;-71
2023/07/02 08:17:24;;;;;;;10.50;9.38;;;;;;;;;;5030328;28;20049;-71
2023/07/02 08:19:49;;;;;;;10.07;8.68;;;;;;;;;;5021515;28;20108;-70
2023/07/02 08:22:15;;;;;;;11.02;7.88;;;;;;;;;;5032706;28;20064;-69
2023/07/02 08:24:40;;;;;;;13.25;8.77;;;;;;;;;;5038655;28;20060;-69
2023/07/02 08:27:06;;;;;;;11.52;8.50;;;;;;;;;;5018889;28;20244;-70
2023/07/02 08:29:32;;;;;;;12.60;8.85;;;;;;;;;;5033039;28;20028;-69
2023/07/02 08:31:57;;;;;;;10.85;8.85;;;;;;;;;;5036826;28;20033;-71
2023/07/02 08:34:23;;;;;;;11.18;8.07;;;;;;;;;;5052278;28;20033;-69
2023/07/02 08:36:49;;;;;;;10.38;8.05;;;;;;;;;;5049419;28;20064;-70
2023/07/02 08:39:15;;;;;;;9.63;7.53;;;;;;;;;;5017358;28;20049;-71
2023/07/02 08:41:48;;;;;;;11.75;8.95;;;;;;;;;;5033920;28;20037;-71
2023/07/02 08:44:14;;;;;;;8.18;7.10;;;;;;;;;;5011991;28;20056;-71
2023/07/02 08:46:41;;;;;;;9.18;6.82;;;;;;;;;;5048484;28;20033;-70
2023/07/02 08:49:10;;;;;;;7.50;6.22;;;;;;;;;;5052012;28;20120;-70
2023/07/02 08:51:36;;;;;;;7.97;5.88;;;;;;;;;;5054992;28;20394;-71
2023/07/02 08:54:03;;;;;;;8.35;5.85;;;;;;;;;;5032450;28;20479;-71
2023/07/02 08:56:29;;;;;;;6.72;6.03;;;;;;;;;;5050028;28;20051;-72
2023/07/02 08:58:55;;;;;;;8.85;6.13;;;;;;;;;;5047660;28;20040;-71
2023/07/02 09:01:20;;;;;;;7.00;6.30;;;;;;;;;;5035772;28;20041;-70
2023/07/02 09:03:46;;;;;;;7.43;6.68;;;;;;;;;;5029980;28;20487;-71
2023/07/02 09:06:12;;;;;;;6.82;6.05;;;;;;;;;;5059535;28;20029;-70
2023/07/02 09:08:38;;;;;;;8.15;6.97;;;;;;;;;;5039731;28;20028;-71
2023/07/02 09:11:10;;;;;;;7.22;6.53;;;;;;;;;;5033761;28;20041;-71
2023/07/02 09:13:58;;;;;;;8.38;6.07;;;;;;;;;;5060573;28;20025;-73
2023/07/02 09:16:32;;;;;;;7.30;6.45;;;;;;;;;;5048778;28;20391;-72
2023/07/02 09:19:07;;;;;;;6.70;6.03;;;;;;;;;;5049214;28;20067;-70
2023/07/02 09:21:42;;;;;;;6.70;6.00;;;;;;;;;;5034926;28;20439;-71
2023/07/02 09:24:23;;;;;;;7.00;6.30;;;;;;;;;;5051552;28;20029;-71
2023/07/02 09:26:53;;;;;;;6.80;5.95;;;;;;;;;;5035559;28;20052;-70
2023/07/02 09:29:29;;;;;;;6.75;6.07;;;;;;;;;;5052698;28;20043;-70
2023/07/02 09:31:56;;;;;;;8.60;6.43;;;;;;;;;;5050169;28;20037;-71
2023/07/02 09:34:29;;;;;;;7.88;6.40;;;;;;;;;;5043667;28;20091;-71
2023/07/02 09:36:55;;;;;;;8.23;7.13;;;;;;;;;;5049036;28;20048;-71
2023/07/02 09:39:27;;;;;;;14.27;7.40;;;;;;;;;;5034730;28;20063;-70
2023/07/02 09:41:55;;;;;;;13.02;6.78;;;;;;;;;;5053834;28;20055;-72
2023/07/02 09:44:21;;;;;;;8.20;7.25;;;;;;;;;;5052853;28;20036;-69
2023/07/02 09:46:58;;;;;;;7.35;6.65;;;;;;;;;;5032448;28;20037;-70
2023/07/02 09:49:25;;;;;;;8.25;5.90;;;;;;;;;;5049814;28;20033;-71
2023/07/02 09:51:51;;;;;;;6.22;5.25;;;;;;;;;;5049985;28;20029;-69
2023/07/02 09:54:16;;;;;;;5.22;4.72;;;;;;;;;;5034717;28;20024;-71
2023/07/02 09:56:43;;;;;;;5.15;3.88;;;;;;;;;;5034536;28;20041;-71
2023/07/02 09:59:09;;;;;;;6.95;3.88;;;;;;;;;;5054256;28;20108;-71
2023/07/02 10:01:35;;;;;;;4.05;3.65;;;;;;;;;;5018786;28;20069;-71
2023/07/02 10:04:11;;;;;;;4.60;4.20;;;;;;;;;;5031714;28;20021;-72
2023/07/02 10:06:56;;;;;;;4.03;3.60;;;;;;;;;;5054754;28;20037;-70
2023/07/02 10:09:34;;;;;;;5.90;3.55;;;;;;;;;;5052767;28;20036;-71
2023/07/02 10:12:00;;;;;;;4.10;3.05;;;;;;;;;;5059800;28;20124;-71
2023/07/02 10:14:26;;;;;;;2.85;2.65;;;;;;;;;;5015111;28;20544;-71
2023/07/02 10:16:55;;;;;;;3.60;3.30;;;;;;;;;;5026982;28;20096;-70
2023/07/02 10:19:22;;;;;;;4.05;3.72;;;;;;;;;;5058476;28;20100;-70
2023/07/02 10:22:03;;;;;;;5.43;3.80;;;;;;;;;;5037215;28;20045;-71
2023/07/02 10:24:29;;;;;;;;;;;;;;;;;;5036523;28;20035;-70
2023/07/02 10:27:02;;;;;;;5.28;3.63;;;;;;;;;;5037121;28;19968;-71
2023/07/02 10:29:29;;;;;;;3.40;3.10;;;;;;;;;;5055617;28;20035;-71
2023/07/02 10:31:56;;;;;;;3.85;3.47;;;;;;;;;;5050642;28;20538;-69
2023/07/02 10:34:48;;;;;;;9.40;4.40;;;;;;;;;;5039927;28;20021;-71
2023/07/02 10:37:13;;;;;;;4.00;3.70;;;;;;;;;;5049962;28;20048;-71
2023/07/02 10:39:40;;;;;;;4.00;3.70;;;;;;;;;;5041119;28;20021;-72
2023/07/02 10:42:06;;;;;;;3.90;3.50;;;;;;;;;;5056242;28;20159;-72
2023/07/02 10:44:32;;;;;;;5.40;3.88;;;;;;;;;;5055988;28;20033;-72
2023/07/02 10:46:58;;;;;;;3.67;3.38;;;;;;;;;;5042431;28;20060;-70
2023/07/02 10:49:30;;;;;;;4.55;3.28;;;;;;;;;;5063247;28;20029;-71
2023/07/02 10:51:57;;;;;;;3.42;2.95;;;;;;;;;;5053005;28;20064;-70
2023/07/02 10:54:23;;;;;;;3.75;3.45;;;;;;;;;;5015768;28;20021;-71
2023/07/02 10:56:48;;;;;;;3.90;3.60;;;;;;;;;;5057143;28;20083;-71
2023/07/02 10:59:23;;;;;;;3.72;3.42;;;;;;;;;;5007895;28;20496;-71
2023/07/02 11:01:50;;;;;;;6.55;3.35;;;;;;;;;;5016421;28;20045;-71
2023/07/02 11:04:16;;;;;;;2.90;2.58;;;;;;;;;;5053593;28;20605;-71
2023/07/02 11:06:41;;;;;;;2.28;2.08;;;;;;;;;;5037769;28;20036;-71
2023/07/02 11:09:16;;;;;;;2.38;2.28;;;;;;;;;;5030824;28;20079;-70
2023/07/02 11:12:11;;;;;;;2.80;2.50;;;;;;;;;;5044661;28;20127;-71
2023/07/02 11:14:36;;;;;;;2.72;2.53;;;;;;;;;;5025919;28;20029;-72
2023/07/02 11:17:05;;;;;;;3.03;2.80;;;;;;;;;;5043577;28;20415;-71
2023/07/02 11:19:31;;;;;;;2.60;2.42;;;;;;;;;;5055019;28;20021;-70
2023/07/02 11:21:57;;;;;;;3.00;2.50;;;;;;;;;;5051361;28;20490;-71
2023/07/02 11:24:49;;;;;;;3.08;2.78;;;;;;;;;;5056827;28;20025;-70
2023/07/02 11:27:21;;;;;;;3.08;2.55;;;;;;;;;;5053591;28;20061;-71
2023/07/02 11:29:47;;;;;;;2.58;2.25;;;;;;;;;;5053221;28;20068;-68
2023/07/02 11:32:13;;;;;;;2.45;2.25;;;;;;;;;;5039244;28;20061;-69
2023/07/02 11:34:40;;;;;;;2.55;2.35;;;;;;;;;;5052923;28;20467;-69
2023/07/02 11:37:05;;;;;;;3.17;2.50;;;;;;;;;;5034886;28;20431;-71
2023/07/02 11:39:32;;;;;;;3.47;2.33;;;;;;;;;;5057370;28;20025;-70
2023/07/02 11:41:57;;;;;;;2.45;2.20;;;;;;;;;;5034323;28;20086;-70
2023/07/02 11:44:23;;;;;;;4.57;2.17;;;;;;;;;;5043761;28;20021;-71
2023/07/02 11:46:49;;;;;;;3.03;1.98;;;;;;;;;;5031339;28;20043;-69
2023/07/02 11:49:14;;;;;;;5.65;2.38;;;;;;;;;;5044425;28;20028;-70
2023/07/02 11:51:41;;;;;;;3.55;3.25;;;;;;;;;;5029100;28;20034;-70
2023/07/02 11:54:07;;;;;;;3.20;2.42;;;;;;;;;;5037788;28;20025;-71
2023/07/02 11:56:32;;;;;;;2.50;2.00;;;;;;;;;;5035586;28;20055;-72
2023/07/02 11:58:58;;;;;;;2.40;2.20;;;;;;;;;;5042915;28;20084;-73
2023/07/02 12:01:24;;;;;;;2.35;2.15;;;;;;;;;;5053902;28;20041;-72
2023/07/02 12:03:49;;;;;;;4.03;2.15;;;;;;;;;;5054355;28;20036;-72
2023/07/02 12:06:15;;;;;;;1.92;1.83;;;;;;;;;;5016962;28;20034;-70
2023/07/02 12:08:40;;;;;;;2.08;1.88;;;;;;;;;;5055906;28;20484;-72
2023/07/02 12:11:06;;;;;;;2.15;2.05;;;;;;;;;;5040391;28;20037;-72
2023/07/02 12:13:32;;;;;;;2.17;2.08;;;;;;;;;;5039669;28;20033;-73
2023/07/02 12:15:57;;;;;;;2.40;2.20;;;;;;;;;;5048210;28;20041;-72
2023/07/02 12:18:22;;;;;;;1.80;1.70;;;;;;;;;;5054708;28;20040;-72
2023/07/02 12:20:48;;;;;;;2.22;2.13;;;;;;;;;;5033441;28;20032;-72
2023/07/02 12:23:13;;;;;;;2.00;1.85;;;;;;;;;;5024988;28;20021;-72
2023/07/02 12:25:39;;;;;;;2.30;2.10;;;;;;;;;;5016439;28;20048;-71
2023/07/02 12:28:05;;;;;;;5.80;1.98;;;;;;;;;;5040065;28;20116;-74
2023/07/02 12:30:31;;;;;;;1.85;1.75;;;;;;;;;;5056137;28;20426;-75
2023/07/02 12:32:56;;;;;;;3.25;2.10;;;;;;;;;;5038925;28;20521;-73
2023/07/02 12:35:22;;;;;;;2.10;2.00;;;;;;;;;;5024712;28;20041;-75
2023/07/02 12:37:49;;;;;;;1.83;1.73;;;;;;;;;;5053279;28;20056;-72
2023/07/02 12:40:15;;;;;;;1.67;1.58;;;;;;;;;;5051069;28;20431;-74
2023/07/02 12:42:41;;;;;;;2.42;2.08;;;;;;;;;;5058946;28;20033;-77
2023/07/02 12:45:08;;;;;;;2.08;1.83;;;;;;;;;;5054616;28;20528;-74
2023/07/02 12:47:33;;;;;;;3.20;1.90;;;;;;;;;;5050053;28;20024;-74
2023/07/02 12:49:59;;;;;;;1.67;1.58;;;;;;;;;;5055629;28;20159;-74
2023/07/02 12:52:24;;;;;;;1.90;1.80;;;;;;;;;;5053035;28;20037;-77
2023/07/02 12:54:50;;;;;;;2.22;1.92;;;;;;;;;;5050711;28;20037;-75
2023/07/02 12:57:15;;;;;;;1.65;1.55;;;;;;;;;;5051485;28;20053;-75
2023/07/02 12:59:40;;;;;;;1.75;1.65;;;;;;;;;;5048296;28;20126;-76
2023/07/02 13:02:06;;;;;;;2.45;1.50;;;;;;;;;;5045596;28;20072;-74
2023/07/02 13:04:31;;;;;;;1.85;1.75;;;;;;;;;;5055211;28;20031;-78
2023/07/02 13:06:57;;;;;;;3.53;1.98;;;;;;;;;;5055230;28;20059;-78
2023/07/02 13:09:22;;;;;;;2.60;2.38;;;;;;;;;;5038028;28;20020;-77
2023/07/02 13:11:48;;;;;;;1.48;1.45;;;;;;;;;;5054552;28;20040;-76
2023/07/02 13:14:13;;;;;;;1.70;1.60;;;;;;;;;;5028655;28;20032;-76
2023/07/02 13:16:39;;;;;;;1.60;1.50;;;;;;;;;;5053375;28;20053;-77
2023/07/02 13:19:04;;;;;;;2.08;1.88;;;;;;;;;;5050185;28;20570;-75
2023/07/02 13:21:29;;;;;;;1.45;1.42;;;;;;;;;;5049544;28;20048;-75
2023/07/02 13:23:55;;;;;;;1.92;1.60;;;;;;;;;;5037495;28;20047;-73
2023/07/02 13:26:20;;;;;;;3.70;1.73;;;;;;;;;;5037411;28;20033;-76
2023/07/02 13:28:47;;;;;;;1.65;1.55;;;;;;;;;;5023694;28;20034;-75
2023/07/02 13:31:16;;;;;;;1.48;1.42;;;;;;;;;;5037052;28;20518;-74
2023/07/02 13:33:42;;;;;;;2.45;1.50;;;;;;;;;;5033717;28;20031;-74
2023/07/02 13:36:08;;;;;;;1.90;1.80;;;;;;;;;;5048043;28;20517;-74
2023/07/02 13:38:34;;;;;;;2.83;1.75;;;;;;;;;;5032260;28;20111;-76
2023/07/02 13:41:00;;;;;;;2.20;2.00;;;;;;;;;;5038485;28;20401;-75
2023/07/02 13:43:25;;;;;;;3.45;1.77;;;;;;;;;;5044542;28;20033;-76
2023/07/02 13:45:51;;;;;;;1.60;1.50;;;;;;;;;;5047819;28;20568;-74
2023/07/02 13:48:16;;;;;;;2.05;1.95;;;;;;;;;;5053159;28;20036;-74
2023/07/02 13:50:42;;;;;;;1.77;1.67;;;;;;;;;;5039871;28;20048;-74
2023/07/02 13:53:08;;;;;;;1.90;1.80;;;;;;;;;;5055384;28;20379;-73
2023/07/02 13:55:34;;;;;;;2.45;1.83;;;;;;;;;;5037516;28;20403;-74
2023/07/02 13:58:00;;;;;;;1.77;1.67;;;;;;;;;;5043607;28;20040;-73
2023/07/02 14:00:26;;;;;;;1.90;1.80;;;;;;;;;;5055006;28;20041;-73
2023/07/02 14:02:52;;;;;;;1.80;1.70;;;;;;;;;;5054082;28;20025;-75
2023/07/02 14:05:18;;;;;;;1.50;1.40;;;;;;;;;;5053564;28;20111;-74
2023/07/02 14:07:43;;;;;;;1.80;1.70;;;;;;;;;;5053401;28;20442;-75
2023/07/02 14:10:09;;;;;;;1.88;1.77;;;;;;;;;;5053842;28;20037;-73
2023/07/02 14:12:35;;;;;;;2.85;1.92;;;;;;;;;;5022748;28;20803;-72
2023/07/02 14:15:00;;;;;;;2.10;1.90;;;;;;;;;;5032685;28;20036;-74
2023/07/02 14:17:26;;;;;;;1.88;1.77;;;;;;;;;;5034514;28;20477;-75
2023/07/02 14:19:51;;;;;;;2.00;1.90;;;;;;;;;;5037261;28;20017;-69
2023/07/02 14:22:16;;;;;;;1.80;1.70;;;;;;;;;;5031953;28;20029;-73
2023/07/02 14:24:42;;;;;;;1.75;1.55;;;;;;;;;;5051580;28;20556;-72
2023/07/02 14:27:07;;;;;;;1.98;1.50;;;;;;;;;;5039821;28;20075;-73
2023/07/02 14:29:33;;;;;;;1.70;1.60;;;;;;;;;;5034612;28;20036;-73
2023/07/02 14:31:59;;;;;;;1.60;1.50;;;;;;;;;;5051109;28;20037;-72